createdAt,value
2022-07-31T00:00:08.541Z,3.13
2022-07-31T00:05:12.332Z,3.58
2022-07-31T00:10:11.149Z,3.17
2022-07-31T00:15:10.937Z,3.35
2022-07-31T00:20:09.863Z,3.45
2022-07-31T00:25:10.756Z,3.65
2022-07-31T00:30:09.456Z,4.00
2022-07-31T00:35:08.413Z,3.85
2022-07-31T00:40:07.512Z,3.95
2022-07-31T00:45:08.013Z,4.45
2022-07-31T00:50:07.183Z,4.68
2022-07-31T00:55:05.802Z,4.32
2022-07-31T01:00:04.586Z,4.53
2022-07-31T01:05:04.562Z,4.97
2022-07-31T01:10:05.541Z,5.38
2022-07-31T01:15:06.310Z,5.03
2022-07-31T01:20:08.296Z,4.97
2022-07-31T01:25:09.615Z,5.70
2022-07-31T01:30:15.728Z,4.90
2022-07-31T01:35:16.778Z,5.95
2022-07-31T01:40:16.562Z,5.75
2022-07-31T01:45:18.080Z,5.43
2022-07-31T01:50:42.157Z,5.82
2022-07-31T01:55:56.417Z,5.25
2022-07-31T02:00:58.513Z,5.93
2022-07-31T02:06:01.014Z,6.00
2022-07-31T02:11:02.174Z,5.63
2022-07-31T02:16:05.058Z,5.15
2022-07-31T02:21:04.772Z,5.75
2022-07-31T02:26:03.881Z,5.30
2022-07-31T02:31:02.801Z,5.53
2022-07-31T02:36:04.105Z,6.45
2022-07-31T02:41:04.998Z,5.50
2022-07-31T02:46:04.500Z,5.45
2022-07-31T02:51:05.076Z,5.32
2022-07-31T02:56:04.697Z,5.57
2022-07-31T03:01:07.795Z,5.68
2022-07-31T03:06:10.473Z,5.43
2022-07-31T03:11:09.872Z,5.50
2022-07-31T03:16:11.456Z,6.03
2022-07-31T03:21:12.284Z,5.55
2022-07-31T03:26:11.695Z,6.10
2022-07-31T03:31:10.587Z,6.10
2022-07-31T03:36:09.594Z,5.88
2022-07-31T03:41:09.409Z,6.55
2022-07-31T03:46:08.827Z,5.60
2022-07-31T03:51:07.687Z,6.05
2022-07-31T03:56:07.642Z,5.85
2022-07-31T04:01:10.564Z,6.05
2022-07-31T04:06:10.813Z,6.30
2022-07-31T04:11:09.165Z,5.38
2022-07-31T04:16:08.805Z,6.07
2022-07-31T04:21:07.068Z,5.93
2022-07-31T04:26:05.532Z,6.25
2022-07-31T04:31:10.228Z,5.65
2022-07-31T04:36:29.248Z,5.90
2022-07-31T04:41:30.232Z,5.85
2022-07-31T04:46:30.102Z,6.43
2022-07-31T04:51:28.737Z,5.85
2022-07-31T04:56:37.709Z,7.13
2022-07-31T05:01:38.483Z,7.10
2022-07-31T05:06:37.661Z,6.90
2022-07-31T05:11:36.761Z,6.82
2022-07-31T05:16:36.683Z,6.80
2022-07-31T05:21:46.054Z,6.43
2022-07-31T05:27:14.988Z,7.00
2022-07-31T05:32:14.370Z,7.82
2022-07-31T05:37:14.376Z,6.93
2022-07-31T05:42:12.677Z,7.82
2022-07-31T05:47:39.855Z,7.63
2022-07-31T05:52:42.781Z,9.23
2022-07-31T05:58:17.018Z,7.55
2022-07-31T06:03:16.629Z,7.78
2022-07-31T06:08:29.207Z,8.65
2022-07-31T06:13:30.231Z,8.25
2022-07-31T06:18:34.026Z,7.63
2022-07-31T06:23:34.183Z,9.40
2022-07-31T06:28:52.767Z,8.40
2022-07-31T06:33:51.426Z,8.77
2022-07-31T06:38:56.103Z,9.73
2022-07-31T06:44:12.860Z,10.27
2022-07-31T06:49:34.016Z,10.88
2022-07-31T06:54:33.819Z,10.93
2022-07-31T06:59:39.792Z,11.35
2022-07-31T07:05:04.527Z,13.55
2022-07-31T07:09:59.785Z,10.57
2022-07-31T07:15:21.205Z,11.60
2022-07-31T07:20:19.632Z,10.10
2022-07-31T07:25:20.574Z,9.98
2022-07-31T07:30:21.995Z,9.40
2022-07-31T07:35:22.056Z,11.40
2022-07-31T07:40:25.685Z,11.57
2022-07-31T07:45:24.417Z,11.88
2022-07-31T07:50:27.075Z,11.90
2022-07-31T07:55:48.803Z,11.60
2022-07-31T08:01:13.145Z,9.93
2022-07-31T08:06:12.573Z,10.50
2022-07-31T08:11:17.115Z,9.40
2022-07-31T08:16:27.976Z,8.48
2022-07-31T08:21:28.923Z,10.18
2022-07-31T08:26:49.656Z,12.98
2022-07-31T08:31:49.314Z,11.88
2022-07-31T08:37:57.613Z,11.95
2022-07-31T08:42:47.304Z,9.85
2022-07-31T08:47:48.057Z,12.27
2022-07-31T08:52:54.707Z,12.35
2022-07-31T08:58:21.173Z,13.25
2022-07-31T09:03:19.890Z,14.88
2022-07-31T09:08:25.774Z,14.20
2022-07-31T09:13:26.017Z,15.68
2022-07-31T09:18:25.372Z,14.05
2022-07-31T09:23:45.303Z,13.18
2022-07-31T09:28:46.074Z,15.45
2022-07-31T09:33:45.993Z,15.80
2022-07-31T09:38:47.528Z,14.82
2022-07-31T09:44:16.824Z,16.00
2022-07-31T09:49:16.171Z,16.05
2022-07-31T09:54:22.149Z,16.70
2022-07-31T09:59:44.167Z,16.38
2022-07-31T10:04:43.893Z,16.10
2022-07-31T10:09:45.742Z,15.75
2022-07-31T10:14:54.480Z,15.23
2022-07-31T10:19:55.435Z,13.35
2022-07-31T10:25:13.011Z,15.02
2022-07-31T10:30:14.013Z,13.75
2022-07-31T10:35:22.776Z,12.15
2022-07-31T10:40:43.925Z,12.73
2022-07-31T10:45:51.648Z,13.00
2022-07-31T10:51:10.436Z,12.18
2022-07-31T10:56:28.852Z,12.30
2022-07-31T11:01:53.181Z,13.40
2022-07-31T11:07:15.911Z,10.70
2022-07-31T11:12:29.325Z,12.20
2022-07-31T11:18:25.331Z,11.20
2022-07-31T11:23:29.870Z,11.27
2022-07-31T11:28:28.205Z,10.50
2022-07-31T11:33:31.701Z,10.88
2022-07-31T11:38:41.733Z,10.88
2022-07-31T11:43:44.644Z,10.25
2022-07-31T11:48:45.709Z,9.43
2022-07-31T11:53:44.176Z,7.70
2022-07-31T11:58:47.326Z,7.50
2022-07-31T12:03:47.627Z,9.25
2022-07-31T12:08:47.644Z,8.45
2022-07-31T12:13:46.801Z,9.80
2022-07-31T12:18:50.522Z,8.18
2022-07-31T12:23:49.712Z,4.57
2022-07-31T12:28:57.096Z,4.40
2022-07-31T12:33:56.808Z,4.20
2022-07-31T12:39:01.999Z,3.80
2022-07-31T12:44:10.041Z,4.22
2022-07-31T12:49:13.180Z,3.75
2022-07-31T12:54:11.559Z,3.63
2022-07-31T12:59:10.084Z,2.80
2022-07-31T13:04:18.700Z,3.00
2022-07-31T13:09:19.266Z,3.90
2022-07-31T13:14:17.632Z,3.60
2022-07-31T13:19:16.709Z,3.83
2022-07-31T13:24:14.965Z,4.50
2022-07-31T13:29:14.731Z,5.90
2022-07-31T13:34:13.096Z,4.68
2022-07-31T13:39:11.413Z,7.32
2022-07-31T13:44:10.042Z,8.43
2022-07-31T13:49:10.737Z,9.02
2022-07-31T13:54:09.118Z,5.53
2022-07-31T13:59:07.518Z,5.18
2022-07-31T14:04:06.069Z,7.15
2022-07-31T14:09:05.709Z,7.97
2022-07-31T14:14:03.985Z,5.50
2022-07-31T14:19:02.858Z,7.53
2022-07-31T14:24:01.172Z,6.47
2022-07-31T14:29:05.366Z,8.05
2022-07-31T14:34:05.357Z,6.07
2022-07-31T14:39:03.760Z,4.72
2022-07-31T14:44:03.541Z,5.47
2022-07-31T14:49:02.771Z,4.95
2022-07-31T14:54:01.492Z,4.95
2022-07-31T14:58:59.869Z,4.78
2022-07-31T15:03:59.735Z,4.10
2022-07-31T15:08:58.023Z,2.67
2022-07-31T15:13:56.416Z,2.70
2022-07-31T15:18:54.771Z,2.63
2022-07-31T15:23:54.505Z,2.13
2022-07-31T15:28:52.844Z,2.28
2022-07-31T15:33:51.341Z,2.40
2022-07-31T15:38:49.657Z,2.22
2022-07-31T15:43:49.352Z,2.20
2022-07-31T15:48:47.748Z,1.70
2022-07-31T15:53:46.054Z,1.80
2022-07-31T15:58:44.418Z,1.73
2022-07-31T16:03:50.325Z,2.28
2022-07-31T16:08:51.354Z,1.92
2022-07-31T16:13:49.636Z,2.20
2022-07-31T16:18:49.366Z,2.55
2022-07-31T16:23:47.668Z,2.45
2022-07-31T16:28:46.106Z,2.40
2022-07-31T16:33:50.623Z,2.35
2022-07-31T16:39:18.428Z,2.50
2022-07-31T16:44:09.232Z,3.35
2022-07-31T16:49:35.249Z,3.30
2022-07-31T16:54:27.247Z,3.35
2022-07-31T16:59:25.622Z,2.13
2022-07-31T17:04:23.977Z,2.35
2022-07-31T17:09:22.624Z,3.33
2022-07-31T17:14:23.132Z,2.88
2022-07-31T17:19:42.903Z,3.75
2022-07-31T17:24:41.129Z,5.35
2022-07-31T17:29:40.838Z,3.13
2022-07-31T17:34:39.133Z,4.32
2022-07-31T17:39:37.419Z,3.85
2022-07-31T17:44:35.741Z,3.92
2022-07-31T17:49:35.632Z,3.63
2022-07-31T17:54:34.174Z,3.70
2022-07-31T17:59:32.463Z,3.67
2022-07-31T18:04:31.513Z,3.40
2022-07-31T18:09:31.387Z,3.38
2022-07-31T18:14:29.707Z,3.90
2022-07-31T18:19:28.310Z,3.80
2022-07-31T18:24:26.627Z,3.92
2022-07-31T18:29:26.308Z,5.07
2022-07-31T18:34:24.607Z,4.18
2022-07-31T18:39:23.149Z,3.90
2022-07-31T18:44:22.240Z,4.00
2022-07-31T18:51:00.669Z,3.97
2022-07-31T18:54:40.400Z,3.97
2022-07-31T18:59:38.905Z,4.22
2022-07-31T19:04:38.597Z,5.50
2022-07-31T19:09:36.914Z,4.40
2022-07-31T19:14:35.204Z,5.13
2022-07-31T19:19:54.373Z,4.90
2022-07-31T19:24:53.570Z,5.20
2022-07-31T19:29:51.882Z,5.47
2022-07-31T19:34:50.266Z,6.05
2022-07-31T19:39:50.810Z,6.32
2022-07-31T19:44:50.489Z,6.32
2022-07-31T19:49:48.872Z,6.00
2022-07-31T19:54:47.211Z,4.68
2022-07-31T19:59:47.117Z,5.40
2022-07-31T20:04:46.744Z,5.63
2022-07-31T20:09:45.401Z,4.55
2022-07-31T20:14:43.664Z,5.65
2022-07-31T20:20:02.848Z,4.10
2022-07-31T20:25:02.763Z,4.57
2022-07-31T20:30:22.061Z,4.43
2022-07-31T20:35:32.954Z,4.13
2022-07-31T20:40:40.993Z,5.07
2022-07-31T20:45:50.897Z,6.43
2022-07-31T20:50:49.233Z,4.15
2022-07-31T20:55:50.077Z,3.83
2022-07-31T21:00:48.961Z,4.47
2022-07-31T21:05:47.508Z,4.65
2022-07-31T21:10:46.145Z,4.90
2022-07-31T21:15:45.930Z,3.92
2022-07-31T21:20:52.143Z,3.67
2022-07-31T21:25:51.766Z,3.97
2022-07-31T21:30:53.737Z,4.00
2022-07-31T21:35:52.354Z,3.47
2022-07-31T21:40:50.894Z,3.95
2022-07-31T21:45:54.969Z,3.28
2022-07-31T21:50:56.027Z,2.63
2022-07-31T21:55:54.380Z,2.80
2022-07-31T22:00:52.716Z,2.72
2022-07-31T22:06:08.624Z,3.45
2022-07-31T22:11:08.349Z,4.28
2022-07-31T22:16:06.761Z,2.72
2022-07-31T22:21:06.295Z,2.47
2022-07-31T22:26:04.805Z,2.35
2022-07-31T22:31:04.679Z,1.83
2022-07-31T22:36:07.208Z,1.80
2022-07-31T22:41:05.607Z,1.50
2022-07-31T22:46:05.321Z,1.73
2022-07-31T22:51:04.296Z,1.80
2022-07-31T22:56:02.589Z,1.45
2022-07-31T23:01:00.878Z,1.55
2022-07-31T23:06:13.151Z,2.00
2022-07-31T23:11:19.337Z,1.83
2022-07-31T23:16:17.676Z,1.50
2022-07-31T23:21:17.397Z,1.52
2022-07-31T23:26:15.688Z,1.98
2022-07-31T23:31:13.997Z,1.92
2022-07-31T23:36:12.632Z,1.60
2022-07-31T23:41:12.640Z,1.30
2022-07-31T23:46:10.890Z,1.67
2022-07-31T23:51:09.197Z,1.58
2022-07-31T23:56:18.452Z,1.58
